Time;durP1;ratioP1;P1;durP2;ratioP2;P2;SDS_P1;SDS_P2;PMS_P1;PMS_P2;Temp;Humidity;BMP_temperature;BMP_pressure;BME280_temperature;BME280_humidity;BME280_pressure;Samples;Min_cycle;Max_cycle;Signal;HPM_P1;HPM_P2
2021/12/29 00:01:25;;;;;;;5.47;1.63;;;;;;;6.71;100.00;93400.00;4933981;29;20705;-73
2021/12/29 00:03:51;;;;;;;9.33;1.33;;;;;;;6.66;100.00;93412.25;4918998;29;20210;-73
2021/12/29 00:06:16;;;;;;;5.20;1.10;;;;;;;6.72;100.00;93421.22;4935321;29;20588;-73
2021/12/29 00:08:42;;;;;;;12.73;1.87;;;;;;;6.67;100.00;93411.03;4931667;29;20224;-73
2021/12/29 00:11:08;;;;;;;9.40;1.60;;;;;;;6.61;100.00;93417.56;4952861;29;20190;-73
2021/12/29 00:13:34;;;;;;;9.37;2.00;;;;;;;6.70;100.00;93420.22;4937224;29;20214;-73
2021/12/29 00:16:04;;;;;;;8.50;1.27;;;;;;;6.61;100.00;93431.13;4952262;29;20194;-72
2021/12/29 00:18:32;;;;;;;7.67;1.40;;;;;;;6.61;100.00;93418.34;4952519;29;20221;-72
2021/12/29 00:21:00;;;;;;;10.83;1.77;;;;;;;6.61;100.00;93444.69;4954521;28;20269;-72
2021/12/29 00:23:26;;;;;;;6.57;1.60;;;;;;;6.68;100.00;93422.63;4947052;28;20234;-73
2021/12/29 00:25:52;;;;;;;12.13;2.10;;;;;;;6.65;100.00;93426.28;4961846;28;20208;-72
2021/12/29 00:28:18;;;;;;;10.67;1.50;;;;;;;6.64;100.00;93435.63;4952093;29;20253;-72
2021/12/29 00:30:44;;;;;;;10.17;1.93;;;;;;;6.60;100.00;93451.34;4936846;29;20182;-72
2021/12/29 00:33:44;;;;;;;6.73;1.37;;;;;;;6.62;100.00;93427.22;4932438;29;20221;-73
2021/12/29 00:36:29;;;;;;;9.43;2.13;;;;;;;6.55;100.00;93438.44;4931901;29;20229;-72
2021/12/29 00:39:33;;;;;;;7.53;1.50;;;;;;;6.56;100.00;93439.94;4922520;29;20344;-72
2021/12/29 00:42:20;;;;;;;5.97;1.93;;;;;;;6.51;100.00;93443.28;4938077;28;20595;-73
2021/12/29 00:45:24;;;;;;;6.03;1.50;;;;;;;6.53;100.00;93438.16;4876930;29;20219;-73
2021/12/29 00:47:50;;;;;;;10.67;1.43;;;;;;;6.53;100.00;93435.44;4875444;29;20204;-72
2021/12/29 00:50:18;;;;;;;11.17;1.60;;;;;;;6.49;100.00;93449.19;4903117;29;20285;-73
2021/12/29 00:52:47;;;;;;;6.93;1.60;;;;;;;6.52;100.00;93450.19;4938360;28;20217;-72
2021/12/29 00:55:15;;;;;;;13.70;1.87;;;;;;;6.49;100.00;93449.19;4955427;28;20217;-73
2021/12/29 00:57:41;;;;;;;15.37;2.20;;;;;;;6.49;100.00;93454.59;4952161;28;20292;-72
2021/12/29 01:00:11;;;;;;;7.23;1.40;;;;;;;6.53;100.00;93465.28;4953332;29;20296;-72
2021/12/29 01:02:40;;;;;;;7.90;2.00;;;;;;;6.46;100.00;93452.84;4952071;28;20319;-73
2021/12/29 01:05:08;;;;;;;9.67;2.03;;;;;;;6.47;100.00;93469.84;4948517;29;20649;-72
2021/12/29 01:07:33;;;;;;;9.07;1.57;;;;;;;6.46;100.00;93471.81;4934322;29;20187;-72
2021/12/29 01:10:00;;;;;;;7.63;2.07;;;;;;;6.52;100.00;93469.19;4934098;29;20185;-72
2021/12/29 01:12:27;;;;;;;7.87;1.73;;;;;;;6.51;100.00;93473.88;4944907;29;20186;-72
2021/12/29 01:14:55;;;;;;;7.17;1.30;;;;;;;6.59;100.00;93487.81;4942008;28;20190;-72
2021/12/29 01:17:22;;;;;;;12.13;2.03;;;;;;;6.63;100.00;93478.28;4949914;29;20194;-72
2021/12/29 01:19:49;;;;;;;7.40;1.33;;;;;;;6.65;100.00;93475.84;4953228;28;20273;-72
2021/12/29 01:22:16;;;;;;;11.30;1.97;;;;;;;6.74;100.00;93480.44;4953192;28;20205;-72
2021/12/29 01:24:46;;;;;;;11.13;1.73;;;;;;;6.81;100.00;93496.34;4954243;28;20265;-72
2021/12/29 01:27:14;;;;;;;4.87;1.50;;;;;;;6.83;100.00;93491.22;4953809;28;20666;-72
2021/12/29 01:29:41;;;;;;;5.40;1.40;;;;;;;6.80;100.00;93484.00;4969031;28;20231;-72
2021/12/29 01:32:06;;;;;;;9.03;1.47;;;;;;;6.78;100.00;93478.28;4957158;28;20190;-72
2021/12/29 01:34:32;;;;;;;7.30;1.47;;;;;;;6.82;100.00;93495.16;4967307;28;20695;-72
2021/12/29 01:36:58;;;;;;;8.67;2.30;;;;;;;6.90;100.00;93494.31;4943194;29;20623;-72
2021/12/29 01:39:27;;;;;;;3.90;1.23;;;;;;;6.92;100.00;93494.56;4938982;29;20675;-74
2021/12/29 01:41:55;;;;;;;10.20;1.80;;;;;;;6.88;100.00;93499.44;4964074;28;20320;-72
2021/12/29 01:44:25;;;;;;;10.27;1.80;;;;;;;6.88;100.00;93510.31;4955561;28;20244;-72
2021/12/29 01:46:53;;;;;;;7.73;1.40;;;;;;;6.92;100.00;93510.84;4933899;29;20193;-72
2021/12/29 01:49:19;;;;;;;8.87;1.97;;;;;;;6.84;100.00;93498.88;4951401;29;20194;-72
2021/12/29 01:51:50;;;;;;;5.80;1.97;;;;;;;6.87;100.00;93500.66;4935390;29;20644;-72
2021/12/29 01:54:24;;;;;;;5.00;1.20;;;;;;;7.01;100.00;93507.28;4956938;28;20241;-72
2021/12/29 01:56:53;;;;;;;8.07;1.57;;;;;;;6.96;100.00;93508.72;4935477;29;20237;-72
2021/12/29 01:59:19;;;;;;;8.57;2.10;;;;;;;7.02;100.00;93514.25;4952944;29;20187;-72
2021/12/29 02:01:44;;;;;;;7.60;1.90;;;;;;;6.84;100.00;93496.16;4935966;29;20427;-72
2021/12/29 02:04:10;;;;;;;6.20;1.47;;;;;;;6.97;100.00;93502.06;4938297;29;20780;-72
2021/12/29 02:06:36;;;;;;;10.03;1.80;;;;;;;6.88;100.00;93518.44;4937947;29;20198;-71
2021/12/29 02:09:04;;;;;;;4.10;1.17;;;;;;;6.98;100.00;93506.28;4937775;29;20190;-72
2021/12/29 02:11:33;;;;;;;10.13;1.73;;;;;;;6.93;100.00;93509.66;4952392;29;20195;-73
2021/12/29 02:14:01;;;;;;;4.67;1.60;;;;;;;6.99;100.00;93526.03;4937975;29;20222;-72
2021/12/29 02:16:28;;;;;;;5.80;1.43;;;;;;;7.06;100.00;93518.25;4945729;29;20194;-72
2021/12/29 02:18:56;;;;;;;7.60;1.87;;;;;;;7.02;100.00;93517.72;4956992;28;20198;-72
2021/12/29 02:21:25;;;;;;;9.70;1.63;;;;;;;6.99;100.00;93532.19;4954108;29;20221;-72
2021/12/29 02:24:15;;;;;;;7.47;1.67;;;;;;;6.98;100.00;93521.81;4958372;28;20213;-72
2021/12/29 02:26:40;;;;;;;9.13;1.37;;;;;;;6.96;100.00;93529.66;4957144;28;20225;-72
2021/12/29 02:29:08;;;;;;;7.00;1.73;;;;;;;6.91;100.00;93541.94;4938752;29;20687;-72
2021/12/29 02:31:36;;;;;;;5.40;1.60;;;;;;;7.11;100.00;93531.19;4955886;28;20214;-72
2021/12/29 02:34:03;;;;;;;8.67;1.77;;;;;;;7.06;100.00;93536.50;4956189;28;20244;-72
2021/12/29 02:36:29;;;;;;;4.10;1.30;;;;;;;7.03;100.00;93545.59;4951647;29;20253;-72
2021/12/29 02:38:56;;;;;;;10.50;1.73;;;;;;;7.03;100.00;93554.47;4937457;29;20191;-72
2021/12/29 02:41:24;;;;;;;10.67;2.10;;;;;;;7.00;100.00;93570.94;4947531;28;20299;-72
2021/12/29 02:43:58;;;;;;;4.97;1.60;;;;;;;6.96;100.00;93560.28;4967877;28;20223;-72
2021/12/29 02:46:26;;;;;;;6.47;1.47;;;;;;;6.99;100.00;93555.91;4939421;28;20197;-72
2021/12/29 02:48:59;;;;;;;5.53;1.40;;;;;;;6.97;100.00;93553.63;4943165;28;20674;-72
2021/12/29 02:51:33;;;;;;;4.97;1.70;;;;;;;7.09;100.00;93577.03;4961657;28;20696;-72
2021/12/29 02:53:59;;;;;;;6.23;1.33;;;;;;;7.01;100.00;93575.91;4953243;28;20265;-72
2021/12/29 02:56:28;;;;;;;4.03;1.10;;;;;;;7.07;100.00;93582.22;4963117;28;20203;-72
2021/12/29 02:58:55;;;;;;;6.30;1.47;;;;;;;7.09;100.00;93589.88;4937107;29;20278;-71
2021/12/29 03:01:22;;;;;;;7.07;1.37;;;;;;;7.10;100.00;93583.22;4936235;29;20250;-72
2021/12/29 03:03:48;;;;;;;5.47;1.20;;;;;;;7.05;100.00;93587.34;4935928;29;20240;-72
2021/12/29 03:06:14;;;;;;;5.77;1.30;;;;;;;7.05;100.00;93597.44;4935786;29;20202;-72
2021/12/29 03:08:40;;;;;;;6.17;1.13;;;;;;;7.02;100.00;93601.84;4945398;29;20611;-72
2021/12/29 03:11:07;;;;;;;8.20;1.30;;;;;;;7.09;100.00;93609.59;4954350;29;20220;-72
2021/12/29 03:13:35;;;;;;;8.87;1.10;;;;;;;7.16;100.00;93600.38;4954688;28;20220;-72
2021/12/29 03:16:01;;;;;;;3.83;0.90;;;;;;;7.08;100.00;93601.94;4946442;28;20827;-72
2021/12/29 03:18:28;;;;;;;7.03;1.40;;;;;;;7.10;100.00;93597.56;4953834;29;20206;-72
2021/12/29 03:20:54;;;;;;;8.30;1.90;;;;;;;6.99;100.00;93608.19;4955501;28;20595;-72
2021/12/29 03:23:20;;;;;;;6.27;1.30;;;;;;;6.93;100.00;93596.50;4960414;28;20754;-72
2021/12/29 03:25:48;;;;;;;4.60;1.40;;;;;;;7.00;100.00;93619.81;4962990;28;20616;-72
2021/12/29 03:28:27;;;;;;;6.50;1.07;;;;;;;7.16;100.00;93622.09;4943386;28;20735;-72
2021/12/29 03:30:54;;;;;;;6.90;1.43;;;;;;;7.05;100.00;93622.63;4934991;29;20667;-72
2021/12/29 03:33:23;;;;;;;7.90;1.30;;;;;;;7.11;100.00;93628.16;4936462;29;20298;-72
2021/12/29 03:35:51;;;;;;;4.27;0.93;;;;;;;7.05;100.00;93627.31;4952578;29;20632;-72
2021/12/29 03:38:21;;;;;;;3.53;1.13;;;;;;;7.01;100.00;93638.34;4937772;29;20635;-72
2021/12/29 03:40:47;;;;;;;5.37;1.53;;;;;;;6.98;100.00;93641.22;4957440;28;20625;-72
2021/12/29 03:43:13;;;;;;;6.43;1.10;;;;;;;6.94;100.00;93635.97;4930895;29;20598;-72
2021/12/29 03:45:41;;;;;;;3.23;1.40;;;;;;;6.93;100.00;93645.34;4961788;28;20193;-72
2021/12/29 03:48:09;;;;;;;3.93;1.00;;;;;;;6.88;100.00;93656.84;4968237;28;20632;-72
2021/12/29 03:50:35;;;;;;;3.13;0.97;;;;;;;6.85;100.00;93657.78;4965544;28;20212;-72
2021/12/29 03:53:02;;;;;;;7.60;1.10;;;;;;;6.84;100.00;93658.97;4956398;28;20286;-72
2021/12/29 03:55:28;;;;;;;4.73;0.90;;;;;;;6.82;100.00;93660.66;4944789;28;20202;-72
2021/12/29 03:57:53;;;;;;;6.87;1.20;;;;;;;6.86;100.00;93666.66;4958781;28;20734;-72
2021/12/29 04:00:20;;;;;;;6.97;1.17;;;;;;;6.81;100.00;93657.19;4962090;28;20662;-72
2021/12/29 04:02:46;;;;;;;6.00;1.20;;;;;;;6.78;100.00;93638.38;4973119;28;20217;-72
2021/12/29 04:05:16;;;;;;;5.13;1.10;;;;;;;6.73;100.00;93656.03;4973139;28;20278;-72
2021/12/29 04:07:42;;;;;;;5.23;1.17;;;;;;;6.76;100.00;93673.34;4972553;28;20232;-72
2021/12/29 04:10:09;;;;;;;5.43;1.20;;;;;;;6.69;100.00;93668.25;4944999;28;20198;-72
2021/12/29 04:12:36;;;;;;;4.77;1.17;;;;;;;6.68;100.00;93677.63;4934694;29;20268;-72
2021/12/29 04:15:03;;;;;;;2.03;0.93;;;;;;;6.68;100.00;93675.66;4945141;29;20189;-72
2021/12/29 04:17:36;;;;;;;1.97;0.97;;;;;;;6.72;100.00;93686.34;4942129;29;20203;-72
2021/12/29 04:23:00;;;;;;;10.73;1.70;;;;;;;6.50;100.00;93694.00;4945894;29;20214;-72
2021/12/29 04:25:26;;;;;;;8.23;1.10;;;;;;;6.56;100.00;93686.72;4952582;29;20203;-72
2021/12/29 04:27:54;;;;;;;6.33;1.10;;;;;;;6.55;100.00;93685.25;4954445;28;20193;-72
2021/12/29 04:30:24;;;;;;;6.80;1.50;;;;;;;6.57;100.00;93685.50;4954715;28;20186;-72
2021/12/29 04:32:52;;;;;;;4.70;1.43;;;;;;;6.57;100.00;93701.78;4952888;28;20222;-72
2021/12/29 04:35:17;;;;;;;11.10;1.93;;;;;;;6.51;100.00;93709.81;4945444;28;20202;-72
2021/12/29 04:37:43;;;;;;;6.30;1.13;;;;;;;6.55;100.00;93715.81;4935301;29;20201;-73
2021/12/29 04:40:11;;;;;;;6.03;1.30;;;;;;;6.54;100.00;93711.59;4950702;29;20281;-73
2021/12/29 04:42:37;;;;;;;5.77;1.27;;;;;;;6.46;100.00;93723.25;4960899;28;20306;-73
2021/12/29 04:45:04;;;;;;;2.23;0.90;;;;;;;6.43;100.00;93724.19;4973166;28;20190;-73
2021/12/29 04:47:31;;;;;;;11.80;1.60;;;;;;;6.44;100.00;93726.44;4943176;28;20202;-73
2021/12/29 04:50:01;;;;;;;6.03;1.20;;;;;;;6.43;100.00;93718.75;4951911;29;20229;-75
2021/12/29 04:52:29;;;;;;;9.60;1.50;;;;;;;6.36;100.00;93714.41;4953741;28;20201;-73
2021/12/29 04:54:55;;;;;;;4.10;1.00;;;;;;;6.42;100.00;93715.28;4952225;29;20281;-73
2021/12/29 04:57:21;;;;;;;6.30;1.70;;;;;;;6.47;100.00;93720.06;4918515;29;20280;-73
2021/12/29 04:59:46;;;;;;;8.03;1.27;;;;;;;6.45;100.00;93721.75;4934261;29;20194;-73
2021/12/29 05:02:12;;;;;;;6.90;1.20;;;;;;;6.43;100.00;93724.19;4934020;29;20233;-73
2021/12/29 05:04:46;;;;;;;3.47;1.17;;;;;;;6.36;100.00;93735.34;4933179;29;20202;-73
2021/12/29 05:09:58;;;;;;;4.90;1.07;;;;;;;6.44;100.00;93729.13;4932931;29;20195;-73
2021/12/29 05:12:24;;;;;;;4.67;1.00;;;;;;;6.47;100.00;93738.28;4948810;29;20179;-73
2021/12/29 05:14:49;;;;;;;8.10;0.90;;;;;;;6.45;100.00;93743.44;4952155;28;20566;-73
2021/12/29 05:17:15;;;;;;;9.23;1.40;;;;;;;6.46;100.00;93747.66;4954583;28;20205;-73
2021/12/29 05:19:41;;;;;;;3.40;1.27;;;;;;;6.46;100.00;93745.69;4956569;28;20194;-73
2021/12/29 05:22:07;;;;;;;7.80;1.67;;;;;;;6.48;100.00;93750.66;4952117;29;20209;-74
2021/12/29 05:24:32;;;;;;;3.67;0.90;;;;;;;6.42;100.00;93755.94;4923603;29;20214;-73
2021/12/29 05:26:59;;;;;;;4.37;0.80;;;;;;;6.46;100.00;93747.66;4934934;29;20416;-73
2021/12/29 05:29:25;;;;;;;7.13;0.90;;;;;;;6.40;100.00;93768.47;4952398;29;20197;-73
2021/12/29 05:31:51;;;;;;;9.90;1.17;;;;;;;6.39;100.00;93761.53;4952756;28;20712;-73
2021/12/29 05:34:17;;;;;;;3.77;1.00;;;;;;;6.40;100.00;93766.50;4923618;29;20342;-73
2021/12/29 05:36:43;;;;;;;7.90;1.03;;;;;;;6.32;100.00;93783.56;4933817;29;20198;-73
2021/12/29 05:39:09;;;;;;;5.23;1.07;;;;;;;6.48;100.00;93785.91;4934691;29;20186;-73
2021/12/29 05:41:34;;;;;;;5.67;1.23;;;;;;;6.44;100.00;93790.75;4952395;28;20690;-73
2021/12/29 05:44:00;;;;;;;3.23;0.87;;;;;;;6.47;100.00;93784.41;4958377;28;20710;-73
2021/12/29 05:46:26;;;;;;;1.87;0.80;;;;;;;6.52;100.00;93784.53;4963935;28;20867;-73
2021/12/29 05:48:51;;;;;;;3.90;0.97;;;;;;;6.51;100.00;93779.56;4971037;28;20674;-75
2021/12/29 05:51:17;;;;;;;5.40;1.20;;;;;;;6.45;100.00;93760.47;4972836;28;20643;-73
2021/12/29 05:53:43;;;;;;;5.07;1.07;;;;;;;6.47;100.00;93781.69;4951844;28;20707;-73
2021/12/29 05:56:09;;;;;;;2.80;1.10;;;;;;;6.55;100.00;93793.72;4932871;29;20784;-73
2021/12/29 05:58:36;;;;;;;4.60;0.93;;;;;;;6.46;100.00;93799.19;4936399;29;20189;-73
2021/12/29 06:01:02;;;;;;;6.37;0.90;;;;;;;6.47;100.00;93797.97;4951516;29;20325;-73
2021/12/29 06:03:28;;;;;;;5.47;1.00;;;;;;;6.38;100.00;93796.03;4935710;29;20213;-73
2021/12/29 06:05:54;;;;;;;3.93;1.30;;;;;;;6.46;100.00;93816.22;4937070;28;20593;-73
2021/12/29 06:08:19;;;;;;;5.07;0.93;;;;;;;6.46;100.00;93816.22;4957938;28;20610;-73
2021/12/29 06:10:45;;;;;;;6.27;1.10;;;;;;;6.44;100.00;93824.03;4935078;29;20668;-73
2021/12/29 06:13:11;;;;;;;5.97;1.03;;;;;;;6.41;100.00;93843.19;4935043;29;20217;-73
2021/12/29 06:15:40;;;;;;;3.60;1.00;;;;;;;6.51;100.00;93833.81;4973147;28;20225;-73
2021/12/29 06:18:06;;;;;;;4.23;1.13;;;;;;;6.42;100.00;93840.00;4950971;29;20285;-73
2021/12/29 06:20:32;;;;;;;3.10;0.87;;;;;;;6.38;100.00;93817.72;4935606;28;20269;-73
2021/12/29 06:22:58;;;;;;;4.60;1.00;;;;;;;6.31;100.00;93836.28;4924697;29;20301;-73
2021/12/29 06:25:28;;;;;;;5.30;1.13;;;;;;;6.31;100.00;93825.44;4933354;29;20349;-73
2021/12/29 06:27:54;;;;;;;3.80;0.67;;;;;;;6.23;100.00;93830.41;4940749;29;20193;-73
2021/12/29 06:30:20;;;;;;;2.57;0.83;;;;;;;6.16;100.00;93833.44;4935198;29;20196;-73
2021/12/29 06:32:46;;;;;;;6.27;1.00;;;;;;;6.24;100.00;93850.16;4935327;29;20206;-73
2021/12/29 06:35:14;;;;;;;4.47;0.87;;;;;;;6.26;100.00;93850.47;4942229;28;20258;-73
2021/12/29 06:37:40;;;;;;;3.57;0.90;;;;;;;6.28;100.00;93843.34;4933294;29;20282;-73
2021/12/29 06:40:06;;;;;;;1.83;0.60;;;;;;;6.29;100.00;93849.53;4932001;29;20292;-73
2021/12/29 06:42:32;;;;;;;3.90;1.00;;;;;;;6.20;100.00;93866.56;4958994;28;20218;-73
2021/12/29 06:44:57;;;;;;;2.70;0.80;;;;;;;6.28;100.00;93853.47;4961947;28;20296;-73
2021/12/29 06:47:24;;;;;;;4.10;0.70;;;;;;;6.26;100.00;93862.06;4955778;28;20198;-73
2021/12/29 06:49:52;;;;;;;3.37;0.77;;;;;;;6.25;100.00;93857.81;4938832;29;20186;-73
2021/12/29 06:52:18;;;;;;;4.43;0.77;;;;;;;6.30;100.00;93873.47;4949641;28;20269;-73
2021/12/29 06:54:46;;;;;;;3.70;0.93;;;;;;;6.31;100.00;93893.22;4936934;29;20281;-73
2021/12/29 06:57:12;;;;;;;3.27;0.67;;;;;;;6.31;100.00;93876.97;4941270;29;20210;-73
2021/12/29 06:59:38;;;;;;;5.07;1.03;;;;;;;6.37;100.00;93886.72;4955372;28;20229;-73
2021/12/29 07:02:03;;;;;;;4.17;1.37;;;;;;;6.39;100.00;93883.56;4954110;29;20253;-73
2021/12/29 07:04:32;;;;;;;3.70;0.77;;;;;;;6.40;100.00;93888.53;4955872;28;20214;-73
2021/12/29 07:06:57;;;;;;;4.70;0.80;;;;;;;6.42;100.00;93901.63;4954387;29;20209;-73
2021/12/29 07:09:24;;;;;;;3.83;1.20;;;;;;;6.36;100.00;93901.50;4954827;29;20222;-73
2021/12/29 07:11:50;;;;;;;3.03;0.97;;;;;;;6.33;100.00;93905.09;4954121;29;20190;-73
2021/12/29 07:14:16;;;;;;;4.23;1.10;;;;;;;6.34;100.00;93901.19;4960805;28;20220;-73
2021/12/29 07:16:45;;;;;;;9.53;1.80;;;;;;;6.42;100.00;93912.47;4954202;28;20198;-73
2021/12/29 07:19:11;;;;;;;3.23;1.00;;;;;;;6.47;100.00;93915.34;4954645;29;20189;-73
2021/12/29 07:21:37;;;;;;;3.50;0.90;;;;;;;6.43;100.00;93916.72;4953786;29;20221;-73
2021/12/29 07:24:03;;;;;;;3.23;1.17;;;;;;;6.38;100.00;93907.22;4941681;28;20218;-73
2021/12/29 07:26:28;;;;;;;2.60;0.60;;;;;;;6.44;100.00;93918.97;4935704;29;20210;-73
2021/12/29 07:28:54;;;;;;;3.60;0.80;;;;;;;6.44;100.00;93923.63;4952339;29;20201;-73
2021/12/29 07:31:20;;;;;;;5.07;1.07;;;;;;;6.58;100.00;93918.34;4955009;29;20185;-73
2021/12/29 07:33:46;;;;;;;3.03;0.80;;;;;;;6.64;100.00;93919.22;4933853;29;20221;-73
2021/12/29 07:36:12;;;;;;;2.10;0.70;;;;;;;6.67;100.00;93925.72;4940124;29;20212;-73
2021/12/29 07:38:39;;;;;;;2.03;0.77;;;;;;;6.61;100.00;93928.28;4937924;29;20193;-73
2021/12/29 07:41:06;;;;;;;3.60;0.40;;;;;;;6.70;100.00;93944.53;4948901;28;20221;-73
2021/12/29 07:43:34;;;;;;;2.13;0.80;;;;;;;6.66;100.00;93935.81;4950159;28;20220;-73
2021/12/29 07:46:00;;;;;;;1.13;0.63;;;;;;;6.66;100.00;93930.38;4941151;29;20195;-73
2021/12/29 07:48:28;;;;;;;2.97;0.70;;;;;;;6.66;100.00;93943.94;4952999;29;20209;-73
2021/12/29 07:50:54;;;;;;;2.10;0.50;;;;;;;6.70;100.00;93935.66;4949517;29;20630;-73
2021/12/29 07:53:21;;;;;;;1.87;0.80;;;;;;;6.66;100.00;93948.59;4934669;29;20309;-73
2021/12/29 07:55:47;;;;;;;3.30;0.80;;;;;;;6.74;100.00;93938.94;4933953;29;20199;-73
2021/12/29 07:58:13;;;;;;;1.73;0.80;;;;;;;6.78;100.00;93951.16;4918273;29;20194;-73
2021/12/29 08:00:39;;;;;;;1.50;0.70;;;;;;;6.79;100.00;93949.19;4935321;29;20692;-73
2021/12/29 08:03:05;;;;;;;3.23;0.80;;;;;;;6.75;100.00;93948.59;4935090;29;20702;-73
2021/12/29 08:05:30;;;;;;;3.33;0.70;;;;;;;6.78;100.00;93956.59;4946939;29;20705;-73
2021/12/29 08:07:56;;;;;;;2.83;0.60;;;;;;;6.81;100.00;93966.53;4918267;29;20214;-73
2021/12/29 08:10:25;;;;;;;1.80;0.63;;;;;;;6.88;100.00;93965.44;4918507;29;20716;-73
2021/12/29 08:12:50;;;;;;;2.13;0.53;;;;;;;6.91;100.00;93965.28;4938320;29;20218;-73
2021/12/29 08:15:17;;;;;;;3.77;0.70;;;;;;;6.98;100.00;93964.97;4956834;28;20574;-73
2021/12/29 08:17:44;;;;;;;1.50;0.63;;;;;;;6.86;100.00;93951.59;4941175;28;20194;-73
2021/12/29 08:20:10;;;;;;;2.63;0.70;;;;;;;6.91;100.00;93965.28;4953583;28;20221;-73
2021/12/29 08:22:35;;;;;;;1.73;0.50;;;;;;;6.99;100.00;93963.75;4954206;28;20300;-73
2021/12/29 08:25:04;;;;;;;2.50;0.73;;;;;;;7.03;100.00;93960.88;4933414;29;20700;-73
2021/12/29 08:27:33;;;;;;;3.30;0.73;;;;;;;7.04;100.00;93970.56;4940740;29;20201;-73
2021/12/29 08:30:00;;;;;;;2.23;0.70;;;;;;;7.06;100.00;93982.44;4936339;29;20225;-73
2021/12/29 08:32:26;;;;;;;2.03;0.70;;;;;;;7.02;100.00;93976.44;4954070;28;20200;-73
2021/12/29 08:34:53;;;;;;;4.00;1.50;;;;;;;7.03;100.00;93988.03;4951650;29;20332;-73
2021/12/29 08:37:21;;;;;;;3.73;0.80;;;;;;;7.02;100.00;93978.41;4935104;29;20266;-73
2021/12/29 08:39:46;;;;;;;6.73;1.20;;;;;;;6.99;100.00;94001.75;4933777;29;20193;-73
2021/12/29 08:42:12;;;;;;;1.87;0.97;;;;;;;6.98;100.00;93978.56;4934730;29;20226;-74
2021/12/29 08:44:38;;;;;;;5.63;1.10;;;;;;;7.03;100.00;93983.38;4952446;28;20225;-73
2021/12/29 08:47:05;;;;;;;5.17;1.20;;;;;;;7.02;100.00;93976.44;4961641;28;20201;-73
2021/12/29 08:49:31;;;;;;;6.13;1.03;;;;;;;7.02;100.00;93987.28;4952855;29;20190;-73
2021/12/29 08:51:57;;;;;;;11.67;1.67;;;;;;;7.12;100.00;93985.31;4933424;29;20213;-74
2021/12/29 08:54:23;;;;;;;2.43;1.10;;;;;;;7.16;100.00;93980.47;4934748;29;20213;-73
2021/12/29 08:56:50;;;;;;;3.87;0.83;;;;;;;7.10;100.00;93985.75;4932314;29;20201;-73
2021/12/29 08:59:16;;;;;;;5.40;1.50;;;;;;;7.16;100.00;93999.47;4949138;29;20209;-73
2021/12/29 09:01:42;;;;;;;6.67;1.43;;;;;;;7.22;100.00;94001.13;4933796;29;20214;-73
2021/12/29 09:04:08;;;;;;;8.40;1.50;;;;;;;7.28;100.00;94007.44;4933735;29;20252;-73
2021/12/29 09:06:34;;;;;;;4.87;1.40;;;;;;;7.42;100.00;94008.72;4933651;29;20273;-73
2021/12/29 09:09:00;;;;;;;5.73;1.30;;;;;;;7.52;100.00;94004.78;4952026;29;20255;-73
2021/12/29 09:11:25;;;;;;;6.13;1.53;;;;;;;7.46;100.00;94017.50;4953227;28;20198;-73
2021/12/29 09:13:53;;;;;;;4.53;1.50;;;;;;;7.56;100.00;94018.19;4955121;28;20213;-73
2021/12/29 09:16:21;;;;;;;8.93;1.17;;;;;;;7.61;100.00;94025.72;4957167;28;20287;-73
2021/12/29 09:18:47;;;;;;;4.70;1.63;;;;;;;7.72;100.00;94017.84;4935682;29;20190;-73
2021/12/29 09:21:15;;;;;;;2.77;0.77;;;;;;;7.78;100.00;94021.41;4951645;29;20238;-73
2021/12/29 09:23:45;;;;;;;6.47;1.83;;;;;;;7.74;100.00;94015.41;4934940;29;20214;-73
2021/12/29 09:26:13;;;;;;;3.93;1.23;;;;;;;7.60;100.00;94027.69;4948589;28;20206;-74
2021/12/29 09:28:40;;;;;;;5.80;1.23;;;;;;;7.61;100.00;94036.59;4949194;29;20204;-73
2021/12/29 09:31:05;;;;;;;5.50;1.23;;;;;;;7.57;100.00;94042.19;4952970;29;20329;-73
2021/12/29 09:33:31;;;;;;;5.27;1.37;;;;;;;7.48;100.00;94031.38;4953066;28;20300;-73
2021/12/29 09:36:01;;;;;;;5.20;1.30;;;;;;;7.53;100.00;94043.56;4952206;29;20205;-74
2021/12/29 09:38:27;;;;;;;7.43;1.27;;;;;;;7.60;100.00;94041.28;4953009;28;20190;-73
2021/12/29 09:40:54;;;;;;;5.77;1.10;;;;;;;7.78;100.00;94045.88;4956066;28;20213;-73
2021/12/29 09:43:20;;;;;;;3.10;1.40;;;;;;;7.83;100.00;94045.25;4971055;28;20307;-73
2021/12/29 09:45:47;;;;;;;4.13;1.20;;;;;;;7.79;100.00;94048.13;4962171;28;20208;-73
2021/12/29 09:48:13;;;;;;;8.40;1.60;;;;;;;7.88;100.00;94034.50;4951568;29;20210;-73
2021/12/29 09:50:40;;;;;;;8.10;1.60;;;;;;;7.88;100.00;94048.09;4951711;29;20200;-73
2021/12/29 09:53:07;;;;;;;7.87;1.77;;;;;;;7.90;100.00;94045.69;4957737;28;20222;-73
2021/12/29 09:55:34;;;;;;;6.00;1.70;;;;;;;8.00;100.00;94032.78;4916147;29;20250;-73
2021/12/29 09:58:00;;;;;;;3.57;1.13;;;;;;;8.02;100.00;94033.84;4947251;29;20193;-73
2021/12/29 10:00:32;;;;;;;6.13;1.40;;;;;;;8.00;100.00;94046.38;4944513;29;20662;-73
2021/12/29 10:03:00;;;;;;;5.30;1.17;;;;;;;7.93;100.00;94035.84;4948261;29;20639;-72
2021/12/29 10:05:31;;;;;;;6.50;1.40;;;;;;;7.91;100.00;94036.31;4947861;29;20206;-72
2021/12/29 10:07:58;;;;;;;7.57;1.03;;;;;;;7.84;100.00;94025.03;4933640;29;20198;-73
2021/12/29 10:10:24;;;;;;;5.00;1.20;;;;;;;7.83;100.00;94028.94;4931998;29;20187;-72
2021/12/29 10:12:50;;;;;;;9.30;1.60;;;;;;;7.64;100.00;94031.00;4950611;28;20241;-72
2021/12/29 10:15:16;;;;;;;7.83;2.10;;;;;;;7.66;100.00;94028.56;4959350;28;20233;-72
2021/12/29 10:17:42;;;;;;;5.80;1.23;;;;;;;7.71;100.00;94038.06;4952236;28;20204;-72
2021/12/29 10:20:11;;;;;;;5.27;1.20;;;;;;;7.71;100.00;94030.66;4955242;29;20577;-73
2021/12/29 10:22:39;;;;;;;6.43;1.57;;;;;;;7.77;100.00;94034.25;4956593;28;20680;-73
2021/12/29 10:25:08;;;;;;;6.03;1.60;;;;;;;7.76;100.00;94026.56;4935298;29;20676;-72
2021/12/29 10:27:34;;;;;;;6.93;1.17;;;;;;;7.86;100.00;94033.47;4956169;29;20576;-73
2021/12/29 10:30:15;;;;;;;9.13;1.20;;;;;;;8.06;100.00;94037.13;4954762;29;20983;-74
2021/12/29 10:32:41;;;;;;;5.27;1.40;;;;;;;8.04;100.00;94047.72;4956278;28;20560;-73
2021/12/29 10:35:07;;;;;;;4.40;1.50;;;;;;;7.97;100.00;94025.56;4940686;29;20201;-73
2021/12/29 10:37:33;;;;;;;5.03;1.37;;;;;;;8.21;100.00;94029.78;4935823;29;20286;-73
2021/12/29 10:40:02;;;;;;;5.47;1.13;;;;;;;8.26;100.00;94034.63;4945412;29;20248;-73
2021/12/29 10:42:27;;;;;;;6.73;1.37;;;;;;;8.29;100.00;94033.72;4968962;28;20671;-73
2021/12/29 10:45:00;;;;;;;9.43;1.60;;;;;;;8.52;100.00;94048.50;4969146;28;20186;-73
2021/12/29 10:47:29;;;;;;;6.20;1.37;;;;;;;8.45;100.00;94038.00;4954326;28;20606;-73
2021/12/29 10:50:04;;;;;;;7.07;1.50;;;;;;;8.46;100.00;94047.66;4954447;29;20402;-73
2021/12/29 10:52:32;;;;;;;6.63;1.57;;;;;;;8.38;100.00;94052.69;4946859;28;20190;-73
2021/12/29 10:54:57;;;;;;;11.47;1.33;;;;;;;8.25;100.00;94054.88;4932891;29;20206;-73
2021/12/29 10:57:23;;;;;;;9.67;1.93;;;;;;;8.12;100.00;94046.19;4937270;29;20202;-73
2021/12/29 10:59:57;;;;;;;11.00;2.00;;;;;;;8.04;100.00;94047.72;4936134;29;20657;-73
2021/12/29 11:02:33;;;;;;;12.30;2.13;;;;;;;8.02;100.00;94050.16;4950864;29;20277;-72
2021/12/29 11:05:03;;;;;;;7.67;1.97;;;;;;;7.95;100.00;94060.59;4954021;29;20196;-72
2021/12/29 11:07:31;;;;;;;10.97;2.00;;;;;;;8.06;100.00;94072.47;4938478;29;20200;-72
2021/12/29 11:10:18;;;;;;;8.20;1.60;;;;;;;8.11;100.00;94074.56;4954034;28;20201;-72
2021/12/29 11:12:55;;;;;;;11.17;1.90;;;;;;;8.14;100.00;94067.47;4954268;28;20246;-72
2021/12/29 11:15:25;;;;;;;12.83;1.97;;;;;;;8.09;100.00;94082.47;4977496;28;20192;-72
2021/12/29 11:17:52;;;;;;;7.13;1.63;;;;;;;8.22;100.00;94065.91;4918828;29;20199;-72
2021/12/29 11:20:21;;;;;;;4.93;1.60;;;;;;;8.10;100.00;94070.34;4949752;29;20189;-72
2021/12/29 11:22:48;;;;;;;9.80;1.63;;;;;;;8.21;100.00;94067.13;4953309;28;20269;-72
2021/12/29 11:25:14;;;;;;;8.57;1.70;;;;;;;8.23;100.00;94070.16;4937595;28;20242;-72
2021/12/29 11:27:40;;;;;;;7.83;1.57;;;;;;;8.25;100.00;94059.56;4941547;29;20205;-72
2021/12/29 11:30:09;;;;;;;9.50;2.50;;;;;;;8.26;100.00;94077.41;4952676;28;20198;-72
2021/12/29 11:32:40;;;;;;;11.20;2.33;;;;;;;8.19;100.00;94050.50;4953976;28;20297;-72
2021/12/29 11:35:13;;;;;;;7.30;2.10;;;;;;;8.19;100.00;94064.88;4951007;29;20198;-72
2021/12/29 11:37:45;;;;;;;9.83;2.17;;;;;;;8.19;100.00;94067.59;4953459;29;20201;-72
2021/12/29 11:40:13;;;;;;;11.10;2.33;;;;;;;8.20;100.00;94077.25;4954986;29;20229;-72